This is the latest recevied weather packets stored in our database for station/object G7NPW-1. If no packets are shown the sender has not sent any weather packets the latest 1 day(s).
| Time | Temp. | Humidity | Pressure | Rain* | Wind** | Luminosity | Snow |
|---|---|---|---|---|---|---|---|
| 1777999207 | 12.78° C | 54% | 1012.9 hPa | 0 mm | 3.58 m/s, 340° | - | - |
| 1777998608 | 12.78° C | 54% | 1012.9 hPa | 0 mm | 3.58 m/s, 340° | - | - |
| 1777997704 | 12.78° C | 54% | 1012.9 hPa | 0 mm | 3.58 m/s, 340° | - | - |
| 1777997407 | 12.78° C | 54% | 1012.9 hPa | 0 mm | 3.58 m/s, 340° | - | - |
| 1777995304 | 13.89° C | 50% | 1012.9 hPa | 0 mm | 4.47 m/s, 350° | - | - |
| 1777993204 | 13.89° C | 50% | 1012.9 hPa | 0 mm | 4.47 m/s, 350° | - | - |
| 1777992608 | 13.89° C | 50% | 1012.9 hPa | 0 mm | 3.13 m/s, 0° | - | - |
| 1777992304 | 13.89° C | 50% | 1012.9 hPa | 0 mm | 3.13 m/s, 0° | - | - |
| 1777992007 | 13.89° C | 50% | 1012.9 hPa | 0 mm | 3.13 m/s, 0° | - | - |
| 1777991703 | 13.89° C | 50% | 1012.9 hPa | 0 mm | 3.13 m/s, 0° | - | - |
| 1777990807 | 13.89° C | 50% | 1012.9 hPa | 0 mm | 3.13 m/s, 0° | - | - |
| 1777989304 | 12.78° C | 54% | 1012.9 hPa | 0 mm | 3.13 m/s, 330° | - | - |
| 1777989008 | 12.78° C | 54% | 1012.9 hPa | 0 mm | 3.13 m/s, 330° | - | - |
| 1777988407 | 12.78° C | 54% | 1012.9 hPa | 0 mm | 3.13 m/s, 330° | - | - |
| 1777987807 | 12.78° C | 54% | 1012.9 hPa | 0 mm | 3.13 m/s, 330° | - | - |
| 1777986608 | 12.78° C | 54% | 1012.9 hPa | 0 mm | 3.13 m/s, 330° | - | - |
| 1777985704 | 12.78° C | 54% | 1012.9 hPa | 0 mm | 2.68 m/s, 350° | - | - |
| 1777984504 | 12.78° C | 54% | 1012.9 hPa | 0 mm | 2.68 m/s, 350° | - | - |
| 1777983607 | 12.78° C | 54% | 1012.9 hPa | 0 mm | 2.68 m/s, 350° | - | - |
| 1777981807 | 12.22° C | 62% | 1013.9 hPa | 0 mm | 3.58 m/s, 340° | - | - |
| 1777981208 | 12.22° C | 62% | 1013.9 hPa | 0 mm | 3.58 m/s, 340° | - | - |
| 1777980607 | 12.22° C | 62% | 1013.9 hPa | 0 mm | 3.58 m/s, 340° | - | - |
| 1777979407 | 12.22° C | 62% | 1013.9 hPa | 0 mm | 3.58 m/s, 340° | - | - |
| 1777978207 | 12.22° C | 62% | 1013.9 hPa | 0 mm | 3.13 m/s, 30° | - | - |
| 1777977904 | 12.22° C | 62% | 1013.9 hPa | 0 mm | 3.13 m/s, 30° | - | - |
* Rain latest hour (hover to see other rain measurements)
** Current wind speed in m/s (hover to see current wind gust speed)